Time;durP1;ratioP1;P1;durP2;ratioP2;P2;SDS_P1;SDS_P2;PMS_P1;PMS_P2;Temp;Humidity;BMP_temperature;BMP_pressure;BME280_temperature;BME280_humidity;BME280_pressure;Samples;Min_cycle;Max_cycle;Signal;HPM_P1;HPM_P2
2023/11/13 05:00:17;;;;;;;11.00;4.80;;;;;;;5.24;69.90;98675.50;108729;1262;107493;31
2023/11/13 05:02:45;;;;;;;10.00;4.50;;;;;;;5.27;70.05;98670.57;107532;1244;96592;-78
2023/11/13 05:05:42;;;;;;;12.60;4.90;;;;;;;5.29;69.97;98671.88;107670;1244;97383;-77
2023/11/13 05:08:08;;;;;;;13.50;5.30;;;;;;;5.31;69.88;98662.78;107357;1241;109440;-82
2023/11/13 05:10:36;;;;;;;11.80;5.40;;;;;;;5.31;69.93;98663.09;107652;1247;97092;-76
2023/11/13 05:13:03;;;;;;;9.40;4.10;;;;;;;5.31;69.93;98665.94;107854;1241;96529;-78
2023/11/13 05:15:37;;;;;;;10.10;4.60;;;;;;;5.30;69.87;98672.67;107814;1244;97054;-78
2023/11/13 05:18:07;;;;;;;6.60;3.60;;;;;;;5.29;69.85;98681.52;107729;1243;96616;-80
2023/11/13 05:20:45;;;;;;;9.90;4.00;;;;;;;5.27;69.88;98676.73;107849;1241;109931;-78
2023/11/13 05:23:13;;;;;;;9.40;3.90;;;;;;;5.24;69.79;98677.95;107673;1241;96608;-79
2023/11/13 05:25:43;;;;;;;10.60;3.80;;;;;;;5.24;69.95;98687.07;107821;1238;107008;-76
2023/11/13 05:28:11;;;;;;;10.00;3.90;;;;;;;5.24;69.83;98681.13;107840;1244;96711;-78
2023/11/13 05:30:38;;;;;;;8.90;4.10;;;;;;;5.25;69.99;98679.67;107703;1244;96683;-76
2023/11/13 05:33:13;;;;;;;7.90;3.50;;;;;;;5.24;69.95;98684.98;108095;1240;96587;-80
2023/11/13 05:35:50;;;;;;;9.90;3.90;;;;;;;5.21;69.78;98682.50;107599;1243;97828;-77
2023/11/13 05:38:19;;;;;;;11.60;4.90;;;;;;;5.20;69.87;98678.15;107914;1243;106208;-77
2023/11/13 05:40:46;;;;;;;11.20;4.30;;;;;;;5.23;69.85;98684.52;107879;1241;96615;-77
2023/11/13 05:43:13;;;;;;;11.50;4.90;;;;;;;5.20;69.80;98684.81;107932;1249;96624;-77
2023/11/13 05:45:40;;;;;;;10.40;4.00;;;;;;;5.23;69.81;98687.52;108014;1240;97169;-80
2023/11/13 05:48:07;;;;;;;9.60;4.20;;;;;;;5.24;69.84;98688.33;107857;1244;97817;-74
2023/11/13 05:50:41;;;;;;;11.20;4.00;;;;;;;5.25;69.91;98690.75;108096;1242;96842;-75
2023/11/13 05:53:08;;;;;;;9.00;4.00;;;;;;;5.26;69.80;98692.80;107750;1251;96693;-74
2023/11/13 05:55:38;;;;;;;8.70;3.80;;;;;;;5.26;69.79;98689.64;107696;1244;96674;-76
2023/11/13 05:58:07;;;;;;;9.30;4.10;;;;;;;5.27;69.78;98690.11;107829;1241;109537;-76
2023/11/13 06:00:37;;;;;;;9.80;3.90;;;;;;;5.27;69.70;98689.92;108298;1240;96615;-77
2023/11/13 06:03:03;;;;;;;7.30;3.30;;;;;;;5.28;69.71;98689.11;107983;1240;107602;-76
2023/11/13 06:05:37;;;;;;;6.70;3.60;;;;;;;5.31;69.70;98693.52;111095;1240;94443;-74
2023/11/13 06:08:04;;;;;;;7.70;3.80;;;;;;;5.33;69.73;98700.46;110890;1239;94249;-77
2023/11/13 06:10:30;;;;;;;5.90;3.40;;;;;;;5.32;69.70;98702.44;111108;1240;94952;-75
2023/11/13 06:12:57;;;;;;;9.30;3.30;;;;;;;5.33;69.66;98701.68;111105;1240;94332;-79
2023/11/13 06:15:34;;;;;;;;;;;;;;;;;;;;;
2023/11/13 06:18:04;;;;;;;8.90;3.90;;;;;;;5.39;69.64;98710.50;110110;1238;97024;-75
2023/11/13 06:20:33;;;;;;;7.20;3.50;;;;;;;5.39;69.56;98716.65;107990;1238;96585;-75
2023/11/13 06:23:05;;;;;;;7.20;3.60;;;;;;;5.40;69.53;98719.56;108697;1242;109780;-76
2023/11/13 06:25:32;;;;;;;10.20;3.60;;;;;;;5.43;69.58;98721.69;108131;1237;96343;-74
2023/11/13 06:27:59;;;;;;;8.10;3.60;;;;;;;5.44;69.55;98727.48;108097;1235;107144;-76
2023/11/13 06:30:27;;;;;;;12.30;4.00;;;;;;;5.42;69.54;98734.08;108117;1241;96694;-77
2023/11/13 06:33:03;;;;;;;12.90;4.80;;;;;;;5.43;69.58;98732.44;108205;1237;97815;-76
2023/11/13 06:35:29;;;;;;;12.00;4.80;;;;;;;5.42;69.46;98735.16;108227;1238;109902;-75
2023/11/13 06:37:59;;;;;;;8.70;3.80;;;;;;;5.42;69.46;98734.61;108132;1236;97062;-78
2023/11/13 06:40:37;;;;;;;9.90;4.00;;;;;;;5.43;69.61;98732.45;108081;1241;106084;-74
2023/11/13 06:43:03;;;;;;;8.80;3.50;;;;;;;5.45;69.59;98737.62;108376;1237;96496;-75
2023/11/13 06:45:33;;;;;;;9.50;4.10;;;;;;;5.45;69.59;98738.65;108467;1237;97059;-75
2023/11/13 06:48:03;;;;;;;11.30;4.50;;;;;;;5.49;69.65;98735.63;108092;1235;109846;-75
2023/11/13 06:50:30;;;;;;;16.20;4.80;;;;;;;5.50;69.49;98737.11;108127;1237;97381;-79
2023/11/13 06:52:56;;;;;;;9.20;4.20;;;;;;;5.53;69.45;98742.77;108100;1246;96650;-74
2023/11/13 06:55:23;;;;;;;7.80;3.70;;;;;;;5.57;69.56;98745.90;108255;1245;96601;-76
2023/11/13 06:57:50;;;;;;;9.90;4.10;;;;;;;5.61;69.56;98743.37;108103;1234;96555;-75
2023/11/13 07:00:17;;;;;;;10.70;4.30;;;;;;;5.67;69.39;98742.71;108154;1239;96659;-75
2023/11/13 07:02:47;;;;;;;7.70;3.60;;;;;;;5.70;69.45;98747.09;108328;1246;105905;-75
2023/11/13 07:05:17;;;;;;;7.60;3.50;;;;;;;5.69;69.30;98751.71;108316;1241;96672;-74
2023/11/13 07:08:04;;;;;;;6.00;3.30;;;;;;;5.72;69.36;98751.73;108239;1239;97390;-75
2023/11/13 07:10:35;;;;;;;7.80;3.40;;;;;;;5.76;69.50;98747.60;108272;1238;109707;-74
2023/11/13 07:13:13;;;;;;;6.90;3.90;;;;;;;5.80;69.31;98748.08;108279;1238;96604;-77
2023/11/13 07:15:46;;;;;;;6.50;3.50;;;;;;;5.83;69.37;98744.39;107887;1235;107466;-76
2023/11/13 07:18:14;;;;;;;7.30;3.60;;;;;;;5.84;69.28;98747.33;108255;1237;97932;-75
2023/11/13 07:20:56;;;;;;;7.80;3.30;;;;;;;5.87;69.33;98749.83;108237;1237;96567;-74
2023/11/13 07:23:35;;;;;;;6.40;3.20;;;;;;;5.91;69.27;98750.81;107864;1241;109803;-74
2023/11/13 07:26:04;;;;;;;9.10;3.60;;;;;;;5.92;69.34;98755.64;108043;1247;96662;-79
2023/11/13 07:28:31;;;;;;;6.30;3.50;;;;;;;5.96;69.34;98752.77;108056;1237;97835;-75
2023/11/13 07:30:58;;;;;;;8.60;3.60;;;;;;;6.00;69.49;98746.25;108078;1237;97813;-80
2023/11/13 07:33:24;;;;;;;9.50;3.80;;;;;;;6.05;69.35;98747.92;108101;1238;97592;-74
2023/11/13 07:36:11;;;;;;;6.50;3.30;;;;;;;6.09;69.18;98749.25;108120;1235;96576;-74
2023/11/13 07:38:41;;;;;;;6.20;3.00;;;;;;;6.14;69.28;98747.20;108059;1237;106855;-76
2023/11/13 07:41:21;;;;;;;6.70;3.40;;;;;;;6.18;69.33;98744.84;108253;1235;96656;-75
2023/11/13 07:43:54;;;;;;;6.80;3.30;;;;;;;6.21;69.24;98742.36;108082;1236;97498;-76
2023/11/13 07:46:20;;;;;;;6.30;3.30;;;;;;;6.26;69.40;98743.83;108230;1237;109918;-75
2023/11/13 07:49:01;;;;;;;7.90;3.50;;;;;;;6.31;69.34;98745.48;108225;1237;96838;-76
2023/11/13 07:51:30;;;;;;;5.90;3.10;;;;;;;6.36;69.34;98747.83;108151;1237;107457;-74
2023/11/13 07:54:05;;;;;;;6.60;3.30;;;;;;;6.39;69.17;98745.52;108271;1237;96695;-80
2023/11/13 07:56:52;;;;;;;8.80;3.60;;;;;;;6.43;69.24;98744.08;108188;1237;97542;-75
2023/11/13 07:59:19;;;;;;;7.10;3.10;;;;;;;6.48;69.25;98746.60;108059;1244;110022;-76
2023/11/13 08:01:45;;;;;;;7.30;3.40;;;;;;;6.53;69.16;98751.05;108403;1237;97088;-75
2023/11/13 08:04:13;;;;;;;6.60;3.50;;;;;;;6.58;69.19;98755.30;108331;1238;96579;-74
2023/11/13 08:06:44;;;;;;;6.20;3.60;;;;;;;6.63;69.28;98751.30;108030;1247;96695;-74
2023/11/13 08:09:15;;;;;;;5.50;3.30;;;;;;;6.68;69.17;98752.94;108284;1235;97715;-74
2023/11/13 08:11:44;;;;;;;8.20;3.40;;;;;;;6.72;68.99;98755.37;108279;1238;109528;-74
2023/11/13 08:14:13;;;;;;;7.20;3.60;;;;;;;6.74;68.91;98754.35;108087;1238;96866;-81
2023/11/13 08:16:42;;;;;;;6.00;3.00;;;;;;;6.76;69.07;98756.31;108107;1241;96609;-74
2023/11/13 08:19:09;;;;;;;7.90;3.30;;;;;;;6.78;68.98;98751.10;108288;1235;96707;-74
2023/11/13 08:21:38;;;;;;;7.00;3.60;;;;;;;6.79;69.01;98755.77;108120;1234;96631;-75
2023/11/13 08:24:19;;;;;;;5.70;3.80;;;;;;;6.81;69.03;98756.32;107851;1244;109286;-75
2023/11/13 08:26:56;;;;;;;9.50;3.40;;;;;;;6.85;68.94;98760.70;108175;1235;96592;-75
2023/11/13 08:29:24;;;;;;;8.30;3.20;;;;;;;6.84;69.02;98757.20;107961;1241;106915;-76
2023/11/13 08:31:53;;;;;;;7.90;3.40;;;;;;;6.85;68.86;98761.61;108254;1246;96561;-73
2023/11/13 08:34:21;;;;;;;9.10;4.00;;;;;;;6.86;68.83;98764.88;108084;1240;96685;-76
2023/11/13 08:36:48;;;;;;;9.50;3.60;;;;;;;6.89;68.76;98760.50;108369;1234;96685;-76
2023/11/13 08:39:17;;;;;;;10.10;4.00;;;;;;;6.93;68.87;98757.95;108315;1249;96573;-75
2023/11/13 08:41:44;;;;;;;7.30;3.60;;;;;;;6.97;68.80;98756.41;108275;1241;107438;-75
2023/11/13 08:44:11;;;;;;;6.50;3.70;;;;;;;7.02;68.85;98765.47;108488;1237;96634;-74
2023/11/13 08:46:38;;;;;;;21.60;8.70;;;;;;;7.05;68.65;98765.84;107925;1240;96650;-75
2023/11/13 08:49:06;;;;;;;17.60;6.80;;;;;;;7.08;68.72;98768.78;108373;1236;96592;-75
2023/11/13 08:51:34;;;;;;;11.50;4.90;;;;;;;7.13;68.71;98768.11;108292;1244;97809;-74
2023/11/13 08:54:00;;;;;;;13.80;5.60;;;;;;;7.19;68.74;98770.42;108111;1241;97848;-76
2023/11/13 08:56:27;;;;;;;14.50;5.70;;;;;;;7.27;68.71;98771.48;108028;1246;96585;-74
2023/11/13 08:58:54;;;;;;;18.30;6.20;;;;;;;7.34;68.82;98770.14;108216;1236;96586;-75
2023/11/13 09:01:25;;;;;;;18.70;6.50;;;;;;;7.41;68.67;98767.95;108072;1236;97259;-75
2023/11/13 09:03:54;;;;;;;16.40;5.50;;;;;;;7.46;68.62;98767.96;108055;1234;97837;-74
2023/11/13 09:06:21;;;;;;;15.70;6.50;;;;;;;7.54;68.74;98770.10;108355;1237;106186;-75
2023/11/13 09:08:53;;;;;;;11.90;4.80;;;;;;;7.66;68.69;98766.38;108077;1235;96624;-75
2023/11/13 09:11:26;;;;;;;13.80;4.50;;;;;;;7.79;68.69;98761.10;108173;1234;96665;-75
2023/11/13 09:13:55;;;;;;;12.00;4.40;;;;;;;7.88;68.73;98768.23;108318;1236;108559;-75
2023/11/13 09:16:25;;;;;;;10.20;3.90;;;;;;;7.98;68.64;98760.95;108061;1244;96592;-76
2023/11/13 09:18:54;;;;;;;7.10;3.40;;;;;;;8.07;68.65;98754.67;108135;1245;106722;-74
2023/11/13 09:21:21;;;;;;;8.30;3.80;;;;;;;8.16;68.46;98749.09;108080;1240;97708;-76
2023/11/13 09:23:58;;;;;;;15.90;5.70;;;;;;;8.29;68.65;98749.43;108295;1235;96595;-74
2023/11/13 09:26:25;;;;;;;18.10;5.80;;;;;;;8.43;68.57;98747.30;108311;1236;109220;-76
2023/11/13 09:28:55;;;;;;;17.20;5.40;;;;;;;8.52;68.67;98742.96;108259;1234;96709;-76
2023/11/13 09:31:32;;;;;;;12.00;4.20;;;;;;;8.61;68.49;98741.97;108051;1244;107510;-75
2023/11/13 09:34:07;;;;;;;10.80;4.00;;;;;;;8.66;68.38;98733.38;108280;1237;96692;-75
2023/11/13 09:36:35;;;;;;;8.60;4.00;;;;;;;8.65;68.08;98728.11;108370;1236;96570;-74
2023/11/13 09:39:06;;;;;;;7.20;3.60;;;;;;;8.62;68.30;98728.81;108360;1236;109608;-75
2023/11/13 09:41:39;;;;;;;6.70;3.10;;;;;;;8.52;67.94;98726.38;108209;1236;96592;-76
2023/11/13 09:44:11;;;;;;;9.80;3.80;;;;;;;8.41;67.93;98725.17;108117;1246;107417;-74
2023/11/13 09:47:01;;;;;;;10.80;3.90;;;;;;;8.34;67.94;98720.33;108240;1236;96616;-75
2023/11/13 09:49:38;;;;;;;8.10;3.60;;;;;;;8.31;67.95;98718.94;108255;1236;96595;-75
2023/11/13 09:52:07;;;;;;;16.70;5.30;;;;;;;8.34;68.09;98722.95;108210;1238;109888;-75
2023/11/13 09:54:35;;;;;;;15.10;5.10;;;;;;;8.37;67.96;98721.89;108129;1241;97294;-76
2023/11/13 09:57:13;;;;;;;15.80;5.80;;;;;;;8.40;68.23;98720.48;108185;1247;106802;-75
2023/11/13 09:59:46;;;;;;;18.30;7.00;;;;;;;8.40;67.93;98715.88;108120;1242;97622;-74
2023/11/13 10:02:31;;;;;;;14.40;5.50;;;;;;;8.44;68.00;98717.55;108117;1246;96701;-75
2023/11/13 10:05:01;;;;;;;12.60;5.00;;;;;;;8.47;68.05;98715.20;108293;1234;96591;-81
2023/11/13 10:07:29;;;;;;;11.10;4.70;;;;;;;8.49;68.01;98712.95;108065;1238;97528;-75
2023/11/13 10:10:06;;;;;;;11.80;4.60;;;;;;;8.52;67.89;98714.35;108305;1244;106509;-73
2023/11/13 10:12:35;;;;;;;13.60;4.70;;;;;;;8.55;67.83;98714.16;108049;1235;97394;-75
2023/11/13 10:15:12;;;;;;;9.40;4.00;;;;;;;8.59;67.69;98714.73;108293;1234;96627;-76
2023/11/13 10:17:47;;;;;;;11.90;4.30;;;;;;;8.64;67.65;98713.34;108161;1239;109819;-74
2023/11/13 10:20:23;;;;;;;12.20;4.40;;;;;;;8.61;67.69;98705.92;108162;1234;97851;-76
2023/11/13 10:23:14;;;;;;;13.60;4.90;;;;;;;8.63;67.58;98704.75;107963;1240;107569;-75
2023/11/13 10:25:59;;;;;;;14.90;5.00;;;;;;;8.66;67.48;98699.07;108111;1239;96801;-75
2023/11/13 10:28:36;;;;;;;11.80;4.10;;;;;;;8.69;67.56;98696.77;108112;1234;96522;-74
2023/11/13 10:31:11;;;;;;;10.40;4.30;;;;;;;8.74;67.68;98698.67;108273;1236;108885;-74
2023/11/13 10:33:42;;;;;;;22.70;8.60;;;;;;;8.80;67.51;98698.78;108121;1234;96584;-73
2023/11/13 10:36:22;;;;;;;16.30;6.30;;;;;;;8.87;67.58;98704.29;107983;1238;107581;-74
2023/11/13 10:38:54;;;;;;;10.00;4.30;;;;;;;8.94;67.50;98701.88;108123;1246;96605;-75
2023/11/13 10:41:33;;;;;;;8.60;4.00;;;;;;;8.98;67.46;98704.27;108107;1239;96685;-74
2023/11/13 10:44:27;;;;;;;21.20;7.20;;;;;;;9.02;67.37;98702.35;108039;1240;109550;-74
2023/11/13 10:46:58;;;;;;;18.10;7.60;;;;;;;9.06;67.38;98703.47;108101;1240;96572;-81
2023/11/13 10:49:25;;;;;;;19.10;8.20;;;;;;;9.08;67.36;98701.72;108174;1234;96651;-74
2023/11/13 10:52:05;;;;;;;11.60;5.20;;;;;;;9.10;67.36;98696.65;108380;1236;96682;-75
2023/11/13 10:54:35;;;;;;;9.00;4.10;;;;;;;9.11;67.20;98698.58;108225;1236;96684;-74
2023/11/13 10:57:03;;;;;;;7.60;3.50;;;;;;;9.09;67.20;98698.81;108100;1237;109826;-75
2023/11/13 10:59:32;;;;;;;7.50;3.30;;;;;;;9.08;67.05;98694.63;108130;1248;96687;-76
2023/11/13 11:03:49;;;;;;;7.10;3.30;;;;;;;9.09;67.12;98693.00;101806;1298;638330;-75
2023/11/13 11:06:33;;;;;;;6.80;2.90;;;;;;;9.11;66.97;98690.06;104665;1266;94325;-75
2023/11/13 11:09:07;;;;;;;18.00;6.50;;;;;;;9.12;66.94;98687.16;104695;1264;94316;-76
2023/11/13 11:11:44;;;;;;;10.20;4.00;;;;;;;9.15;66.83;98682.52;104560;1267;106735;-75
2023/11/13 11:14:37;;;;;;;12.20;5.20;;;;;;;9.18;66.93;98678.23;104611;1277;94322;-74
2023/11/13 11:17:19;;;;;;;11.00;4.40;;;;;;;9.26;66.74;98679.41;104681;1265;282099;-75
2023/11/13 11:19:53;;;;;;;11.00;5.00;;;;;;;9.31;66.84;98676.52;104613;1265;95202;-74
2023/11/13 11:22:42;;;;;;;;;;;;;;;;;;;;;
2023/11/13 11:25:17;;;;;;;8.90;3.40;;;;;;;9.43;66.80;98669.65;104913;1266;107135;-74
2023/11/13 11:27:58;;;;;;;10.70;4.80;;;;;;;9.40;66.60;98664.05;104968;1260;95427;-75
2023/11/13 11:30:35;;;;;;;10.10;4.00;;;;;;;9.32;66.53;98663.35;104845;1262;107588;-76
2023/11/13 11:33:27;;;;;;;7.60;3.50;;;;;;;9.22;66.56;98664.09;104953;1264;95265;-75
2023/11/13 11:36:06;;;;;;;9.10;3.80;;;;;;;9.09;66.41;98665.23;105148;1262;95249;-76
2023/11/13 11:38:36;;;;;;;6.40;3.40;;;;;;;9.00;66.35;98668.67;104935;1262;109244;-74
2023/11/13 11:41:59;;;;;;;9.40;3.60;;;;;;;8.94;66.23;98662.24;104848;1262;96099;-78
2023/11/13 11:44:44;;;;;;;16.40;6.10;;;;;;;8.98;66.26;98662.33;105085;1260;107556;-74
2023/11/13 11:47:39;;;;;;;19.60;6.70;;;;;;;9.02;66.23;98662.36;104909;1259;95281;-77
2023/11/13 11:50:28;;;;;;;14.00;5.20;;;;;;;9.05;66.36;98665.86;105299;1262;95287;-76
2023/11/13 11:53:04;;;;;;;13.00;5.10;;;;;;;9.03;66.22;98663.01;105031;1261;108193;-76
2023/11/13 11:55:33;;;;;;;13.30;5.20;;;;;;;9.01;66.27;98664.91;105054;1260;96188;-78
2023/11/13 11:58:07;;;;;;;13.20;4.60;;;;;;;9.01;66.11;98663.90;105131;1260;107619;-73
2023/11/13 12:00:36;;;;;;;15.90;5.10;;;;;;;9.01;66.16;98662.63;104896;1256;95254;-76
2023/11/13 12:03:04;;;;;;;15.80;6.10;;;;;;;9.02;66.25;98661.13;105176;1259;96066;-74
2023/11/13 12:05:42;;;;;;;10.60;4.30;;;;;;;9.03;66.04;98664.61;105429;1254;109202;-78
2023/11/13 12:08:11;;;;;;;12.00;5.10;;;;;;;9.03;65.94;98658.80;105289;1257;95509;-74
2023/11/13 12:10:45;;;;;;;10.50;4.40;;;;;;;9.04;66.11;98666.65;105419;1256;107723;-75
2023/11/13 12:13:18;;;;;;;12.20;4.90;;;;;;;8.99;65.81;98669.09;105281;1258;95324;-75
2023/11/13 12:15:59;;;;;;;11.30;4.00;;;;;;;8.97;65.95;98668.89;105248;1256;95769;-75
2023/11/13 12:18:31;;;;;;;11.20;4.10;;;;;;;8.95;65.84;98666.77;104969;1261;108781;-77
2023/11/13 12:21:04;;;;;;;10.30;4.20;;;;;;;8.92;65.82;98662.41;105169;1257;95475;-75
2023/11/13 12:23:34;;;;;;;13.50;5.10;;;;;;;8.89;65.79;98654.27;105233;1266;107347;-74
2023/11/13 12:26:05;;;;;;;13.90;5.20;;;;;;;8.90;65.86;98649.56;105216;1259;95333;-77
2023/11/13 12:28:43;;;;;;;13.60;5.10;;;;;;;8.92;65.60;98648.21;105211;1259;95275;-74
2023/11/13 12:31:16;;;;;;;14.50;5.80;;;;;;;8.95;65.80;98645.71;105255;1257;109460;-74
2023/11/13 12:33:46;;;;;;;12.10;4.90;;;;;;;8.97;65.68;98642.05;105146;1260;96306;-75
2023/11/13 12:36:17;;;;;;;16.50;6.20;;;;;;;8.98;65.60;98648.15;105214;1257;107168;-74
2023/11/13 12:38:46;;;;;;;15.00;5.70;;;;;;;8.99;65.62;98647.73;105013;1259;95358;-75
2023/11/13 12:41:23;;;;;;;13.70;5.30;;;;;;;8.98;65.61;98645.48;105259;1256;95299;-75
2023/11/13 12:43:53;;;;;;;14.80;5.70;;;;;;;9.00;65.60;98646.02;105026;1262;107206;-76
2023/11/13 12:46:33;;;;;;;23.30;10.00;;;;;;;9.04;65.78;98642.63;104935;1260;95324;-75
2023/11/13 12:49:03;;;;;;;22.10;9.50;;;;;;;9.07;65.66;98642.02;105226;1259;107548;-73
2023/11/13 12:51:58;;;;;;;23.50;10.40;;;;;;;9.09;65.55;98635.71;105157;1257;95247;-75
2023/11/13 12:54:34;;;;;;;20.50;8.10;;;;;;;9.07;65.50;98634.45;105065;1256;95227;-78
2023/11/13 12:57:36;;;;;;;;;;;;;;;;;;;;;
2023/11/13 13:00:05;;;;;;;15.80;6.30;;;;;;;9.00;65.41;98631.39;105192;1270;96141;-74
2023/11/13 13:02:53;;;;;;;22.40;9.80;;;;;;;8.99;65.47;98628.48;105644;1259;108285;-78
2023/11/13 13:05:30;;;;;;;20.90;8.90;;;;;;;8.97;65.55;98623.52;105048;1259;96200;-74
2023/11/13 13:08:03;;;;;;;27.20;12.40;;;;;;;8.94;65.49;98618.59;105258;1257;96180;-74
2023/11/13 13:10:31;;;;;;;20.90;9.20;;;;;;;8.91;65.43;98615.75;105171;1259;108365;-74
2023/11/13 13:13:04;;;;;;;22.00;9.10;;;;;;;8.89;65.47;98616.26;105331;1253;96094;-75
2023/11/13 13:15:45;;;;;;;25.70;11.50;;;;;;;8.85;65.35;98620.26;105360;1257;107727;-75
2023/11/13 13:18:22;;;;;;;29.70;12.20;;;;;;;8.79;65.36;98612.57;105247;1259;95240;-76
2023/11/13 13:20:55;;;;;;;21.80;9.30;;;;;;;8.74;65.38;98612.26;105395;1258;95243;-75
2023/11/13 13:23:34;;;;;;;17.80;7.50;;;;;;;8.72;65.32;98612.91;105382;1255;108005;-75
2023/11/13 13:26:10;;;;;;;22.90;9.30;;;;;;;8.70;65.34;98616.56;105189;1259;96076;-75
2023/11/13 13:28:48;;;;;;;20.30;8.30;;;;;;;8.64;65.29;98620.33;105048;1271;107056;-75
2023/11/13 13:31:25;;;;;;;22.60;8.90;;;;;;;8.60;65.22;98622.92;105185;1254;95253;-74
2023/11/13 13:33:55;;;;;;;27.70;10.80;;;;;;;8.55;65.24;98628.48;105168;1259;95160;-75
2023/11/13 13:36:26;;;;;;;30.30;14.00;;;;;;;8.48;65.18;98631.00;105145;1259;107272;-74
2023/11/13 13:38:55;;;;;;;31.40;14.00;;;;;;;8.47;65.37;98626.98;105413;1254;95584;-79
2023/11/13 13:41:31;;;;;;;25.90;12.40;;;;;;;8.49;65.33;98625.99;105127;1259;107690;-75
2023/11/13 13:44:00;;;;;;;26.40;12.80;;;;;;;8.48;65.37;98627.64;105400;1259;95739;-75
2023/11/13 13:46:29;;;;;;;24.80;11.20;;;;;;;8.46;65.21;98632.58;105359;1259;95151;-78
2023/11/13 13:49:07;;;;;;;23.00;11.30;;;;;;;8.42;65.26;98627.69;105320;1254;108792;-78
2023/11/13 13:51:38;;;;;;;20.00;9.30;;;;;;;8.40;65.21;98625.40;105296;1258;95342;-73
2023/11/13 13:54:09;;;;;;;26.30;11.30;;;;;;;8.38;65.22;98622.70;105552;1259;107813;-74
2023/11/13 13:56:40;;;;;;;25.80;11.70;;;;;;;8.33;65.36;98613.12;105307;1259;96257;-75
2023/11/13 13:59:16;;;;;;;24.70;12.00;;;;;;;8.32;65.33;98616.25;105113;1259;95327;-77
2023/11/13 14:01:44;;;;;;;28.30;14.10;;;;;;;8.28;65.25;98622.20;105162;1259;108128;-75
2023/11/13 14:04:13;;;;;;;29.20;14.00;;;;;;;8.24;65.21;98617.82;105389;1255;96533;-75
2023/11/13 14:06:46;;;;;;;33.20;17.20;;;;;;;8.21;65.12;98621.38;105336;1258;108173;-74
2023/11/13 14:09:16;;;;;;;33.60;17.60;;;;;;;8.16;65.13;98613.75;105226;1259;95275;-76
2023/11/13 14:11:45;;;;;;;28.00;14.40;;;;;;;8.13;65.22;98607.34;105228;1259;95258;-74
2023/11/13 14:14:15;;;;;;;33.60;17.70;;;;;;;8.09;65.13;98613.08;105474;1256;108282;-75
2023/11/13 14:16:47;;;;;;;29.30;15.40;;;;;;;8.04;65.10;98624.17;105445;1259;95257;-74
2023/11/13 14:19:16;;;;;;;33.40;17.10;;;;;;;8.00;65.07;98622.49;105620;1259;107492;-75
2023/11/13 14:21:46;;;;;;;27.70;14.10;;;;;;;7.97;65.16;98616.86;105414;1259;95372;-75
2023/11/13 14:24:15;;;;;;;27.60;13.60;;;;;;;7.94;65.16;98619.43;105726;1254;96003;-74
2023/11/13 14:26:47;;;;;;;28.30;13.40;;;;;;;7.91;65.21;98615.92;105599;1255;108524;-74
2023/11/13 14:29:19;;;;;;;21.80;10.50;;;;;;;7.88;65.05;98610.23;105184;1269;95654;-73
2023/11/13 14:31:57;;;;;;;21.40;10.20;;;;;;;7.84;64.97;98619.34;105192;1259;107772;-74
2023/11/13 14:34:32;;;;;;;23.00;10.60;;;;;;;7.83;65.11;98623.02;105114;1259;95288;-75
2023/11/13 14:37:00;;;;;;;21.70;9.30;;;;;;;7.80;65.01;98619.27;105225;1259;95240;-73
2023/11/13 14:39:30;;;;;;;23.00;8.60;;;;;;;7.79;65.02;98616.01;105048;1259;108889;-73
2023/11/13 14:42:00;;;;;;;23.70;10.20;;;;;;;7.75;65.12;98617.67;105368;1260;96170;-74
2023/11/13 14:44:28;;;;;;;38.10;16.10;;;;;;;7.70;65.14;98617.81;105097;1254;107503;-73
2023/11/13 14:46:58;;;;;;;42.00;20.00;;;;;;;7.65;65.07;98621.36;105496;1259;95854;-74
2023/11/13 14:49:30;;;;;;;43.80;19.20;;;;;;;7.59;65.09;98625.61;105089;1259;95259;-74
2023/11/13 14:51:58;;;;;;;40.70;18.20;;;;;;;7.54;65.01;98624.91;105379;1254;107253;-79
2023/11/13 14:54:34;;;;;;;38.00;16.40;;;;;;;7.52;65.18;98620.10;105076;1256;95637;-74
2023/11/13 14:57:05;;;;;;;30.20;14.30;;;;;;;7.51;65.30;98619.61;105301;1260;107287;-74
2023/11/13 14:59:46;;;;;;;28.20;13.20;;;;;;;7.49;65.16;98608.84;105165;1259;96171;-76
2023/11/13 15:02:31;;;;;;;27.70;13.30;;;;;;;7.45;65.23;98605.38;105550;1259;95249;-78
2023/11/13 15:05:16;;;;;;;23.30;11.20;;;;;;;7.44;65.16;98607.71;105339;1254;108478;-80
2023/11/13 19:43:34;;;;;;;20.60;7.80;;;;;;;4.56;66.40;98419.50;102115;1291;95453;-84
2023/11/13 19:46:22;;;;;;;21.30;8.10;;;;;;;4.52;66.10;98417.66;103124;1283;110175;-80
2023/11/13 19:48:57;;;;;;;21.40;9.50;;;;;;;4.46;65.89;98415.54;102885;1285;96738;-82
